首页
METAR-TAF:

METAR-TAF

机场 :

Mfuwe, 赞比亚

纬度: 13-15-32S, 经度: 031-56-12E, 海拔: 573米

METAR: 丢失

时间: 13:28 (11:28 UTC)

预报

该预报发布于13小时和28分钟前的22:00 UTC
预报有效从20日的 00点(UTC)到 21日的 06点(UTC)
风速3节,风向多变
能见度10公里或以上
1500米以下无云,无积雨云
成为
从 20日的 04点(UTC)到 20日的 06点(UTC)
风速10节,风向
成为
从 20日的 08点(UTC)到 20日的 10点(UTC)
能见度10公里或以上
散云层高于3000英尺
成为
从 20日的 11点(UTC)到 20日的 13点(UTC)
风速5节,风向东转东北
散云层高于4000英尺

TAF: FLMF 192200Z 2000/2106 VRB03KT CAVOK BECMG 2004/2006 09010KT BECMG 2008/2010 9999 SCT030 BECMG 2011/2013 07005KT SCT040

超过4000个机场的气象观测和天气预报(METAR&TAF报告)。

可查询的气象台以黄色和红色小点在地图上表示。

将鼠标移到小点上方,可查看气象台名称。

然后点击查看天气观测和预报。

如需切换地图:点击带黑十字的绿色按钮放大地图;点击带横线的绿色按钮缩小地图;或者点击绿色箭头查看邻近地区的地图。


METAR-TAF: